Time;durP1;ratioP1;P1;durP2;ratioP2;P2;SDS_P1;SDS_P2;PMS_P1;PMS_P2;Temp;Humidity;BMP_temperature;BMP_pressure;BME280_temperature;BME280_humidity;BME280_pressure;Samples;Min_cycle;Max_cycle;Signal;HPM_P1;HPM_P2
2021/05/26 00:02:15;;;;;;;7.43;4.53;;;;;;;11.33;100.00;100371.94;5016400;28;20026;-74
2021/05/26 00:04:41;;;;;;;5.68;4.43;;;;;;;11.40;100.00;100363.94;5021939;28;20037;-75
2021/05/26 00:07:06;;;;;;;7.07;4.28;;;;;;;11.40;100.00;100369.34;5017736;28;20040;-74
2021/05/26 00:09:32;;;;;;;5.43;4.50;;;;;;;11.34;100.00;100356.56;5026954;28;20033;-75
2021/05/26 00:11:57;;;;;;;9.15;4.40;;;;;;;10.95;100.00;100360.66;5021177;28;20045;-72
2021/05/26 00:14:23;;;;;;;4.07;3.67;;;;;;;10.82;100.00;100350.09;5027908;28;20111;-76
2021/05/26 00:16:48;;;;;;;6.38;4.05;;;;;;;11.12;100.00;100352.03;5017032;28;20474;-75
2021/05/26 00:19:14;;;;;;;7.10;4.18;;;;;;;11.28;100.00;100344.53;5025317;28;20022;-73
2021/05/26 00:21:39;;;;;;;5.90;3.97;;;;;;;11.12;100.00;100341.25;5029037;28;20072;-75
2021/05/26 00:24:05;;;;;;;5.95;3.92;;;;;;;11.19;100.00;100342.13;5013480;28;20037;-75
2021/05/26 00:26:31;;;;;;;7.43;4.10;;;;;;;11.24;100.00;100339.13;5019271;28;20371;-75
2021/05/26 00:28:56;;;;;;;5.22;3.85;;;;;;;11.34;100.00;100343.09;5029041;28;20549;-75
2021/05/26 00:31:24;;;;;;;6.85;4.22;;;;;;;11.31;100.00;100344.59;5028566;28;20124;-75
2021/05/26 00:33:50;;;;;;;8.48;4.35;;;;;;;11.39;100.00;100327.34;5019182;28;20045;-75
2021/05/26 00:36:16;;;;;;;5.20;4.22;;;;;;;11.54;100.00;100330.97;5029629;28;20037;-75
2021/05/26 00:38:42;;;;;;;4.97;4.40;;;;;;;11.26;100.00;100333.34;5027908;28;20109;-75
2021/05/26 00:41:08;;;;;;;4.80;4.20;;;;;;;11.37;100.00;100326.94;5022768;28;20120;-75
2021/05/26 00:43:33;;;;;;;4.93;4.00;;;;;;;11.38;100.00;100333.88;5024291;28;20447;-74
2021/05/26 00:45:59;;;;;;;5.32;4.05;;;;;;;11.31;100.00;100341.09;5005067;28;20401;-74
2021/05/26 00:48:24;;;;;;;4.90;4.20;;;;;;;11.45;100.00;100330.50;5019741;28;20064;-75
2021/05/26 00:50:50;;;;;;;6.00;4.25;;;;;;;11.24;100.00;100332.94;5024614;28;20033;-76
2021/05/26 00:53:16;;;;;;;6.63;4.45;;;;;;;11.34;100.00;100329.59;5021014;28;20103;-75
2021/05/26 00:55:43;;;;;;;6.72;4.20;;;;;;;11.32;100.00;100334.59;5025856;28;20162;-73
2021/05/26 00:58:11;;;;;;;5.18;4.20;;;;;;;11.21;100.00;100325.56;5021788;28;20072;-75
2021/05/26 01:00:39;;;;;;;4.90;4.25;;;;;;;11.24;100.00;100327.56;5025175;28;20026;-74
2021/05/26 01:03:10;;;;;;;6.43;4.40;;;;;;;11.40;100.00;100323.50;5037413;28;20049;-75
2021/05/26 01:05:38;;;;;;;6.47;4.22;;;;;;;11.44;100.00;100326.25;5025770;28;20557;-75
2021/05/26 01:08:04;;;;;;;8.77;4.18;;;;;;;11.30;100.00;100328.78;5022841;28;20112;-75
2021/05/26 01:10:33;;;;;;;5.95;3.90;;;;;;;11.05;100.00;100327.69;5023443;28;20486;-75
2021/05/26 01:13:05;;;;;;;6.28;4.22;;;;;;;11.17;100.00;100322.84;5015258;28;20774;-75
2021/05/26 01:15:31;;;;;;;7.53;4.63;;;;;;;11.18;100.00;100316.31;5020256;28;20026;-75
2021/05/26 01:17:56;;;;;;;5.55;4.38;;;;;;;11.20;100.00;100307.88;5019133;28;20040;-75
2021/05/26 01:20:30;;;;;;;6.53;4.90;;;;;;;11.20;100.00;100315.94;5020309;28;20084;-75
2021/05/26 01:22:59;;;;;;;7.75;5.10;;;;;;;11.03;100.00;100317.28;5017979;28;20112;-75
2021/05/26 01:25:27;;;;;;;10.10;5.00;;;;;;;10.93;100.00;100315.22;5021945;28;20116;-75
2021/05/26 01:27:52;;;;;;;5.22;4.60;;;;;;;11.09;100.00;100328.53;5021766;28;20109;-75
2021/05/26 01:30:19;;;;;;;5.57;4.75;;;;;;;11.20;100.00;100318.66;5027352;28;20494;-75
2021/05/26 01:32:51;;;;;;;6.55;4.95;;;;;;;11.27;100.00;100316.03;5018884;28;20026;-75
2021/05/26 01:35:19;;;;;;;6.20;5.07;;;;;;;11.19;100.00;100320.56;5040636;28;20037;-75
2021/05/26 01:37:47;;;;;;;7.10;4.95;;;;;;;11.15;100.00;100310.91;5019923;28;20080;-75
2021/05/26 01:40:16;;;;;;;7.18;5.45;;;;;;;11.02;100.00;100310.34;5026088;28;20131;-75
2021/05/26 01:42:42;;;;;;;8.07;5.50;;;;;;;11.19;100.00;100311.72;5029832;28;20033;-75
2021/05/26 01:45:10;;;;;;;7.82;5.80;;;;;;;11.26;100.00;100309.88;5020358;28;20057;-75
2021/05/26 01:47:36;;;;;;;8.15;5.78;;;;;;;11.33;100.00;100311.88;5027998;28;20037;-76
2021/05/26 01:50:04;;;;;;;7.40;5.63;;;;;;;11.24;100.00;100304.06;5026645;28;20033;-75
2021/05/26 01:52:34;;;;;;;6.70;5.35;;;;;;;11.30;100.00;100310.69;5030640;28;20028;-75
2021/05/26 01:55:01;;;;;;;6.88;5.20;;;;;;;11.06;100.00;100305.00;5031812;28;20037;-75
2021/05/26 01:57:28;;;;;;;10.70;5.38;;;;;;;11.17;100.00;100303.22;5042893;28;20069;-76
2021/05/26 01:59:58;;;;;;;8.27;6.07;;;;;;;11.24;100.00;100295.22;5021810;28;20025;-75
2021/05/26 02:02:30;;;;;;;8.70;6.38;;;;;;;11.23;100.00;100299.81;5027343;28;20025;-76
2021/05/26 02:04:56;;;;;;;8.95;5.85;;;;;;;11.30;100.00;100299.91;5013238;28;20034;-75
2021/05/26 02:07:22;;;;;;;9.05;6.30;;;;;;;11.44;100.00;100302.75;5015852;28;20029;-75
2021/05/26 02:09:49;;;;;;;9.48;6.40;;;;;;;11.43;100.00;100295.81;5043305;28;20072;-76
2021/05/26 02:14:47;;;;;;;7.90;6.53;;;;;;;11.42;100.00;100290.81;5015198;28;20058;-74
2021/05/26 02:17:14;;;;;;;10.57;6.63;;;;;;;11.46;100.00;100297.75;5027204;28;20029;-73
2021/05/26 02:19:39;;;;;;;11.30;6.53;;;;;;;11.38;100.00;100288.03;5030658;28;20099;-75
2021/05/26 02:22:05;;;;;;;12.63;6.90;;;;;;;11.47;100.00;100301.25;5024768;28;20117;-75
2021/05/26 02:24:33;;;;;;;9.10;6.97;;;;;;;11.49;100.00;100299.75;5040832;28;20041;-74
2021/05/26 02:26:58;;;;;;;10.73;7.40;;;;;;;11.28;100.00;100291.41;5039562;28;20029;-75
2021/05/26 02:29:24;;;;;;;10.88;7.68;;;;;;;11.20;100.00;100292.47;5023550;28;20038;-76
2021/05/26 02:31:50;;;;;;;11.07;7.10;;;;;;;11.22;100.00;100282.09;5026315;28;20061;-75
2021/05/26 02:34:16;;;;;;;9.05;7.22;;;;;;;11.28;100.00;100288.72;5026109;28;20505;-75
2021/05/26 02:36:42;;;;;;;10.80;7.82;;;;;;;11.39;100.00;100288.81;5030573;28;20034;-76
2021/05/26 02:39:08;;;;;;;10.82;8.02;;;;;;;11.52;100.00;100290.13;5023677;28;20036;-72
2021/05/26 02:41:33;;;;;;;12.27;7.75;;;;;;;11.42;100.00;100282.72;5030579;28;20534;-75
2021/05/26 02:43:59;;;;;;;9.85;7.07;;;;;;;11.28;100.00;100286.03;5024602;28;20474;-76
2021/05/26 02:46:25;;;;;;;11.18;7.95;;;;;;;11.34;100.00;100278.38;5025872;28;20033;-75
2021/05/26 02:48:51;;;;;;;11.70;8.43;;;;;;;11.38;100.00;100281.91;5025527;28;20524;-75
2021/05/26 02:51:17;;;;;;;12.32;8.70;;;;;;;11.32;100.00;100283.38;5022432;28;20075;-75
2021/05/26 02:53:43;;;;;;;13.95;8.75;;;;;;;11.16;100.00;100283.56;5023865;28;20083;-74
2021/05/26 02:56:10;;;;;;;13.80;8.75;;;;;;;11.22;100.00;100279.41;5014192;28;20072;-75
2021/05/26 02:58:36;;;;;;;13.60;9.68;;;;;;;11.08;100.00;100267.69;5027270;28;20037;-75
2021/05/26 03:01:05;;;;;;;14.70;9.63;;;;;;;11.10;100.00;100268.09;5023505;28;20375;-76
2021/05/26 03:03:51;;;;;;;13.77;9.65;;;;;;;11.17;100.00;100278.97;5039690;28;20087;-76
2021/05/26 03:06:30;;;;;;;15.27;10.13;;;;;;;11.42;100.00;100282.72;5042842;28;20071;-75
2021/05/26 03:08:56;;;;;;;16.48;10.18;;;;;;;11.31;100.00;100285.28;5020578;28;20036;-74
2021/05/26 03:11:27;;;;;;;;;;;;;;;11.28;100.00;100277.16;5028982;28;20037;-76
2021/05/26 03:14:22;;;;;;;15.45;10.10;;;;;;;11.28;100.00;100279.84;5019397;28;20374;-75
2021/05/26 03:16:52;;;;;;;17.58;9.80;;;;;;;11.24;100.00;100268.25;5023395;28;20029;-75
2021/05/26 03:19:17;;;;;;;13.52;9.95;;;;;;;11.38;100.00;100279.19;5022196;28;20200;-75
2021/05/26 03:21:45;;;;;;;17.70;10.57;;;;;;;11.45;100.00;100279.25;5007195;28;20431;-73
2021/05/26 03:24:29;;;;;;;16.13;10.80;;;;;;;11.47;100.00;100282.38;5028575;28;20136;-76
2021/05/26 03:26:55;;;;;;;19.40;10.70;;;;;;;11.54;100.00;100283.22;5028424;28;20486;-74
2021/05/26 03:29:21;;;;;;;19.98;11.48;;;;;;;11.38;100.00;100281.91;5029342;28;20029;-76
2021/05/26 03:31:46;;;;;;;17.90;10.63;;;;;;;11.41;100.00;100273.84;5030230;28;20383;-76
2021/05/26 03:34:12;;;;;;;18.67;10.77;;;;;;;11.44;100.00;100277.72;5023182;28;20032;-75
2021/05/26 03:36:39;;;;;;;16.65;10.55;;;;;;;11.29;100.00;100273.31;5024721;28;20034;-75
2021/05/26 03:39:07;;;;;;;16.70;11.13;;;;;;;11.38;100.00;100268.41;5047327;22;20055;-72
2021/05/26 03:41:33;;;;;;;15.98;10.57;;;;;;;11.52;100.00;100271.25;5045762;28;20047;-72
2021/05/26 03:43:59;;;;;;;16.00;10.18;;;;;;;11.59;100.00;100264.00;5043233;28;20021;-72
2021/05/26 03:46:25;;;;;;;14.60;9.13;;;;;;;11.57;100.00;100276.31;5036795;28;20112;-73
2021/05/26 03:48:53;;;;;;;13.60;9.60;;;;;;;11.41;100.00;100273.84;5055713;28;20495;-72
2021/05/26 03:51:19;;;;;;;13.48;9.13;;;;;;;11.50;100.00;100274.31;5038179;28;20033;-72
2021/05/26 03:53:47;;;;;;;14.93;9.45;;;;;;;11.52;100.00;100265.84;5048194;28;20021;-72
2021/05/26 03:56:20;;;;;;;15.43;9.32;;;;;;;11.46;100.00;100264.63;5031311;28;20163;-72
2021/05/26 03:59:08;;;;;;;15.55;9.32;;;;;;;11.31;100.00;100268.31;5048009;28;20025;-72
2021/05/26 04:01:36;;;;;;;13.70;9.25;;;;;;;11.43;100.00;100260.78;5039152;28;20549;-72
2021/05/26 04:04:04;;;;;;;15.82;9.55;;;;;;;11.49;100.00;100263.91;5047459;28;20029;-72
2021/05/26 04:06:33;;;;;;;13.80;9.73;;;;;;;11.48;100.00;100263.13;5030548;28;20071;-72
2021/05/26 04:08:59;;;;;;;20.35;10.65;;;;;;;11.51;100.00;100256.22;5056755;28;20029;-72
2021/05/26 04:11:24;;;;;;;17.52;10.50;;;;;;;11.55;100.00;100260.50;5030476;28;20032;-72
2021/05/26 04:14:08;;;;;;;17.67;10.43;;;;;;;11.45;100.00;100258.47;5044351;28;20044;-74
2021/05/26 04:17:03;;;;;;;17.27;10.90;;;;;;;11.42;100.00;100269.22;5024900;28;20064;-72
2021/05/26 04:19:31;;;;;;;16.85;12.00;;;;;;;11.56;100.00;100263.97;5046494;28;20045;-72
2021/05/26 04:21:58;;;;;;;20.33;11.77;;;;;;;11.49;100.00;100272.78;5033400;28;20029;-72
2021/05/26 04:24:27;;;;;;;20.67;12.52;;;;;;;11.66;100.00;100258.72;5037517;28;20037;-72
2021/05/26 04:26:55;;;;;;;21.05;12.55;;;;;;;11.56;100.00;100270.13;5033071;28;20056;-72
2021/05/26 04:29:22;;;;;;;18.05;12.25;;;;;;;11.53;100.00;100262.03;5042344;28;20512;-72
2021/05/26 04:31:49;;;;;;;19.38;12.82;;;;;;;11.69;100.00;100260.66;5046087;28;20461;-73
2021/05/26 04:34:16;;;;;;;20.80;13.20;;;;;;;11.64;100.00;100260.19;5058663;28;20029;-71
2021/05/26 04:36:42;;;;;;;20.33;13.20;;;;;;;11.71;100.00;100254.91;5035918;28;20036;-72
2021/05/26 04:39:08;;;;;;;19.17;12.65;;;;;;;11.80;100.00;100244.56;5046484;28;20033;-73
2021/05/26 04:41:34;;;;;;;18.95;13.30;;;;;;;11.91;100.00;100245.44;5044964;28;20040;-72
2021/05/26 04:44:01;;;;;;;18.65;12.18;;;;;;;12.10;100.00;100247.88;5047275;28;20040;-73
2021/05/26 04:46:27;;;;;;;16.65;11.88;;;;;;;12.10;100.00;100245.19;5050752;28;20056;-72
2021/05/26 04:48:53;;;;;;;17.10;12.07;;;;;;;12.00;100.00;100250.53;5043868;28;20509;-73
2021/05/26 04:51:18;;;;;;;19.77;12.30;;;;;;;11.94;100.00;100247.41;5039233;28;20034;-71
2021/05/26 04:53:44;;;;;;;22.67;12.88;;;;;;;12.06;100.00;100252.50;5049689;28;20033;-72
2021/05/26 04:56:10;;;;;;;18.38;12.15;;;;;;;11.91;100.00;100244.66;5039038;28;20043;-72
2021/05/26 04:58:35;;;;;;;21.23;12.30;;;;;;;11.79;100.00;100256.50;5042662;28;20052;-72
2021/05/26 05:01:01;;;;;;;17.13;11.70;;;;;;;11.86;100.00;100248.50;5029796;28;20040;-72
2021/05/26 05:03:26;;;;;;;17.88;12.55;;;;;;;11.92;100.00;100243.50;5043899;28;20086;-72
2021/05/26 05:05:55;;;;;;;19.83;11.85;;;;;;;12.10;100.00;100247.88;5043883;28;20078;-73
2021/05/26 05:08:20;;;;;;;18.15;11.27;;;;;;;12.21;100.00;100256.88;5035377;28;20414;-73
2021/05/26 05:10:45;;;;;;;15.55;11.68;;;;;;;12.29;100.00;100252.28;5042914;28;20474;-72
2021/05/26 05:13:11;;;;;;;16.10;10.38;;;;;;;12.25;100.00;100251.47;5056313;28;20043;-72
2021/05/26 05:15:36;;;;;;;16.60;10.13;;;;;;;12.28;100.00;100266.91;5061140;28;20036;-72
2021/05/26 05:18:02;;;;;;;15.63;9.68;;;;;;;12.14;100.00;100264.88;5039965;28;20029;-73
2021/05/26 05:20:27;;;;;;;13.05;9.43;;;;;;;12.37;100.00;100262.75;5049002;28;20112;-72
2021/05/26 05:22:55;;;;;;;13.63;9.07;;;;;;;12.48;100.00;100258.19;5045409;28;20086;-72
2021/05/26 05:25:21;;;;;;;12.48;9.00;;;;;;;12.25;100.00;100246.09;5043397;28;20060;-72
2021/05/26 05:27:48;;;;;;;11.48;8.80;;;;;;;12.20;100.00;100249.13;5044571;28;20025;-72
2021/05/26 05:30:14;;;;;;;12.48;9.02;;;;;;;12.30;100.00;100254.59;5049569;28;20024;-73
2021/05/26 05:32:40;;;;;;;12.15;8.85;;;;;;;12.33;99.68;100242.28;5043198;28;20029;-72
2021/05/26 05:35:07;;;;;;;13.90;9.45;;;;;;;12.20;99.49;100249.91;5044367;28;20082;-72
2021/05/26 05:37:33;;;;;;;15.40;8.88;;;;;;;12.13;99.54;100249.06;5034322;28;20033;-72
2021/05/26 05:39:59;;;;;;;18.00;9.55;;;;;;;11.91;100.00;100253.53;5038063;28;20071;-73
2021/05/26 05:42:24;;;;;;;17.23;10.85;;;;;;;11.95;100.00;100248.16;5043812;28;20036;-72
2021/05/26 05:44:50;;;;;;;18.92;10.75;;;;;;;12.01;100.00;100250.16;5041562;28;20029;-73
2021/05/26 05:47:16;;;;;;;15.35;10.32;;;;;;;12.13;100.00;100247.16;5055728;28;20041;-73
2021/05/26 05:49:41;;;;;;;16.10;10.93;;;;;;;12.20;100.00;100232.91;5050039;28;20039;-73
2021/05/26 05:52:10;;;;;;;17.02;11.75;;;;;;;12.40;100.00;100236.91;5049669;28;20025;-72
2021/05/26 05:54:36;;;;;;;17.33;9.65;;;;;;;12.78;100.00;100225.53;5038020;28;20041;-72
2021/05/26 05:57:03;;;;;;;15.88;9.32;;;;;;;12.80;100.00;100231.31;5044938;28;20068;-73
2021/05/26 05:59:28;;;;;;;13.93;9.98;;;;;;;12.82;99.76;100220.13;5037370;28;20055;-72
2021/05/26 06:01:54;;;;;;;15.88;10.27;;;;;;;12.97;99.05;100229.88;5039214;28;20029;-73
2021/05/26 06:04:19;;;;;;;17.30;9.73;;;;;;;12.92;98.43;100230.22;5043204;28;20041;-73
2021/05/26 06:06:44;;;;;;;15.07;10.45;;;;;;;12.99;99.47;100225.59;5039052;28;20143;-73
2021/05/26 06:09:10;;;;;;;13.60;10.00;;;;;;;13.09;99.91;100226.81;5047797;28;20504;-72
2021/05/26 06:11:36;;;;;;;14.52;9.55;;;;;;;13.28;99.17;100223.78;5047947;28;20578;-74
2021/05/26 06:14:06;;;;;;;13.77;9.15;;;;;;;13.34;98.52;100223.03;5047997;28;20032;-74
2021/05/26 06:16:36;;;;;;;13.43;9.27;;;;;;;13.36;97.73;100222.66;5044848;28;20121;-73
2021/05/26 06:19:02;;;;;;;14.65;9.65;;;;;;;13.25;96.68;100219.16;5044924;28;20071;-74
2021/05/26 06:21:29;;;;;;;12.43;9.52;;;;;;;12.88;98.21;100215.91;5046865;28;20036;-73
2021/05/26 06:23:55;;;;;;;15.55;10.02;;;;;;;12.72;100.00;100216.22;5046761;28;20121;-73
2021/05/26 06:26:20;;;;;;;14.55;9.70;;;;;;;12.78;100.00;100219.34;5056390;28;20487;-73
2021/05/26 06:28:46;;;;;;;13.80;9.52;;;;;;;12.82;99.17;100207.41;5046586;28;20021;-73
2021/05/26 06:31:12;;;;;;;15.05;10.45;;;;;;;12.68;99.84;100212.75;5047713;28;20094;-73
2021/05/26 06:33:38;;;;;;;15.77;10.93;;;;;;;12.81;99.85;100210.50;5044206;28;20086;-73
2021/05/26 06:36:04;;;;;;;15.05;10.30;;;;;;;12.69;100.00;100206.97;5050722;28;20033;-73
2021/05/26 06:38:29;;;;;;;15.43;10.57;;;;;;;12.87;99.67;100211.69;5034188;28;20524;-72
2021/05/26 06:40:55;;;;;;;18.58;11.02;;;;;;;12.79;99.82;100207.41;5042783;28;20056;-72
2021/05/26 06:43:20;;;;;;;15.35;10.40;;;;;;;12.63;100.00;100203.09;5033074;28;20047;-72
2021/05/26 06:45:45;;;;;;;18.38;10.35;;;;;;;12.89;99.73;100201.25;5038147;28;20120;-72
2021/05/26 06:48:11;;;;;;;13.90;10.25;;;;;;;12.92;99.50;100206.69;5047156;28;20033;-72
2021/05/26 06:50:37;;;;;;;14.60;9.93;;;;;;;12.81;100.00;100208.56;5045298;28;20046;-72
2021/05/26 06:53:02;;;;;;;15.82;10.02;;;;;;;12.80;100.00;100206.22;5043648;28;20033;-72
2021/05/26 06:55:28;;;;;;;16.38;10.65;;;;;;;12.72;100.00;100199.28;5044679;28;20120;-72
2021/05/26 06:57:53;;;;;;;16.30;10.55;;;;;;;12.80;100.00;100208.94;5040717;28;20029;-72
2021/05/26 07:00:19;;;;;;;17.27;10.20;;;;;;;12.53;100.00;100208.44;5024350;28;20112;-72
2021/05/26 07:02:45;;;;;;;17.95;10.52;;;;;;;12.69;100.00;100206.97;5039045;28;20033;-72
2021/05/26 07:05:11;;;;;;;15.52;10.93;;;;;;;12.60;100.00;100211.19;5043704;28;20025;-72
2021/05/26 07:07:37;;;;;;;16.48;11.52;;;;;;;12.61;100.00;100205.41;5038680;28;20120;-72
2021/05/26 07:10:04;;;;;;;14.02;9.43;;;;;;;12.58;100.00;100208.09;5053189;28;20143;-74
2021/05/26 07:12:30;;;;;;;12.50;8.57;;;;;;;12.22;100.00;100206.31;5035779;28;20052;-73
2021/05/26 07:14:55;;;;;;;10.30;6.60;;;;;;;12.14;100.00;100216.31;5041487;28;20109;-73
2021/05/26 07:17:21;;;;;;;7.63;5.43;;;;;;;12.11;100.00;100208.97;5045585;28;20108;-73
2021/05/26 07:19:46;;;;;;;5.40;4.15;;;;;;;11.90;100.00;100219.63;5046308;28;20028;-72
2021/05/26 07:22:12;;;;;;;4.22;2.97;;;;;;;11.84;100.00;100220.31;5044366;28;20035;-73
2021/05/26 07:24:37;;;;;;;2.40;2.20;;;;;;;11.75;100.00;100216.00;5045072;28;20033;-72
2021/05/26 07:27:03;;;;;;;3.35;2.20;;;;;;;11.63;100.00;100218.19;5037185;28;20037;-72
2021/05/26 07:29:29;;;;;;;2.50;2.30;;;;;;;11.72;100.00;100213.28;5045431;28;20071;-72
2021/05/26 07:31:54;;;;;;;3.83;2.20;;;;;;;11.67;100.00;100210.94;5041609;28;20116;-72
2021/05/26 07:34:19;;;;;;;3.63;2.45;;;;;;;11.50;100.00;100211.50;5042506;28;20067;-72
2021/05/26 07:36:45;;;;;;;3.25;2.67;;;;;;;11.40;100.00;100202.19;5048984;28;20408;-72
2021/05/26 07:39:10;;;;;;;5.07;3.00;;;;;;;11.52;100.00;100209.22;5045993;28;20232;-72
2021/05/26 07:41:36;;;;;;;3.00;2.38;;;;;;;11.42;100.00;100218.00;5039068;28;20489;-72
2021/05/26 07:44:02;;;;;;;7.50;2.90;;;;;;;11.37;100.00;100213.72;5046491;28;20033;-72
2021/05/26 07:46:27;;;;;;;4.03;3.00;;;;;;;11.55;100.00;100216.59;5043139;28;20031;-72
2021/05/26 07:48:53;;;;;;;5.40;3.63;;;;;;;11.71;100.00;100211.75;5039822;28;20055;-73
2021/05/26 07:51:27;;;;;;;4.55;3.65;;;;;;;11.75;100.00;100204.44;5043859;28;20111;-73
2021/05/26 07:53:53;;;;;;;6.32;3.65;;;;;;;11.81;100.00;100202.19;5037082;28;20393;-73
2021/05/26 07:56:20;;;;;;;5.50;3.75;;;;;;;11.58;100.00;100205.81;5038977;28;20090;-72
2021/05/26 07:58:45;;;;;;;4.88;3.28;;;;;;;11.57;100.00;100204.28;5043794;28;20033;-74
2021/05/26 08:01:11;;;;;;;6.18;3.80;;;;;;;11.59;100.00;100193.13;5039937;28;20405;-73
2021/05/26 08:03:39;;;;;;;5.43;2.70;;;;;;;11.45;100.00;100209.94;5040719;28;20033;-74
2021/05/26 08:06:05;;;;;;;4.80;2.75;;;;;;;11.29;100.00;100193.22;5041008;28;20068;-73
2021/05/26 08:08:30;;;;;;;6.97;3.63;;;;;;;11.40;100.00;100185.25;5035920;28;20510;-74
2021/05/26 08:10:57;;;;;;;5.38;3.05;;;;;;;11.24;100.00;100187.41;5037726;28;20099;-72
2021/05/26 08:13:22;;;;;;;4.30;3.28;;;;;;;11.32;100.00;100186.31;5042245;28;20037;-73
2021/05/26 08:15:48;;;;;;;7.97;3.28;;;;;;;11.31;100.00;100179.38;5043644;28;20032;-73
2021/05/26 08:18:13;;;;;;;3.60;3.30;;;;;;;11.29;100.00;100187.81;5042606;28;20041;-74
2021/05/26 08:20:40;;;;;;;6.75;3.85;;;;;;;11.27;100.00;100187.44;5043674;28;20036;-74
2021/05/26 08:23:06;;;;;;;5.13;3.33;;;;;;;11.26;100.00;100185.09;5042859;28;20074;-74
2021/05/26 08:25:31;;;;;;;4.80;3.78;;;;;;;11.25;100.00;100183.53;5044161;28;20032;-73
2021/05/26 08:27:57;;;;;;;5.90;4.60;;;;;;;10.95;100.00;100169.38;5042602;28;20041;-73
2021/05/26 08:30:22;;;;;;;10.25;6.95;;;;;;;11.15;100.00;100182.28;5041286;28;20041;-73
2021/05/26 08:32:48;;;;;;;14.63;9.20;;;;;;;11.25;100.00;100181.63;5040063;28;20037;-73
2021/05/26 08:35:14;;;;;;;19.23;12.18;;;;;;;11.62;100.00;100170.78;5035592;28;20532;-73
2021/05/26 08:37:39;;;;;;;23.20;14.00;;;;;;;11.85;100.00;100165.97;5041861;28;20041;-74
2021/05/26 08:40:05;;;;;;;28.02;14.50;;;;;;;11.89;100.00;100169.47;5038301;28;20104;-72
2021/05/26 08:42:31;;;;;;;25.40;16.30;;;;;;;12.08;100.00;100163.06;5044249;28;20071;-73
2021/05/26 08:44:57;;;;;;;25.00;14.90;;;;;;;12.07;100.00;100167.69;5038496;28;20056;-73
2021/05/26 08:47:27;;;;;;;29.73;15.63;;;;;;;12.05;100.00;100163.81;5045196;28;20120;-73
2021/05/26 08:49:52;;;;;;;26.75;15.52;;;;;;;12.24;100.00;100172.41;5041756;28;20385;-73
2021/05/26 08:52:20;;;;;;;26.65;15.50;;;;;;;12.41;100.00;100157.44;5039930;28;20045;-74
2021/05/26 08:54:49;;;;;;;25.02;15.38;;;;;;;12.38;100.00;100161.69;5038385;28;20851;-73
2021/05/26 08:57:15;;;;;;;26.42;15.70;;;;;;;12.41;100.00;100160.91;5042767;28;20049;-73
2021/05/26 08:59:41;;;;;;;26.92;14.75;;;;;;;12.45;100.00;100161.72;5041083;28;20083;-73
2021/05/26 09:02:11;;;;;;;23.80;15.20;;;;;;;12.71;100.00;100163.38;5042910;28;20075;-74
2021/05/26 09:04:37;;;;;;;29.50;16.00;;;;;;;13.14;100.00;100159.63;5042490;28;20603;-72
2021/05/26 09:07:17;;;;;;;27.33;15.25;;;;;;;13.26;100.00;100159.28;5039375;28;20044;-73
2021/05/26 09:09:54;;;;;;;21.63;13.43;;;;;;;13.50;100.00;100152.34;5038303;28;20033;-74
2021/05/26 09:12:33;;;;;;;27.33;13.63;;;;;;;14.05;100.00;100150.72;5059952;28;20139;-74
2021/05/26 09:15:14;;;;;;;23.25;12.40;;;;;;;14.55;100.00;100156.03;5043032;28;20059;-73
2021/05/26 09:17:44;;;;;;;21.02;10.73;;;;;;;14.17;100.00;100153.03;5040803;28;20064;-73
2021/05/26 09:20:25;;;;;;;17.83;9.70;;;;;;;14.30;100.00;100159.59;5045650;28;20040;-73
2021/05/26 09:23:24;;;;;;;16.10;10.00;;;;;;;14.37;100.00;100158.81;5037348;28;20064;-72
2021/05/26 09:25:52;;;;;;;15.80;9.10;;;;;;;14.21;97.00;100161.91;5027595;28;20455;-73
2021/05/26 09:28:24;;;;;;;15.48;9.18;;;;;;;14.26;98.30;100156.13;5042894;28;20049;-73
2021/05/26 09:31:01;;;;;;;17.67;9.38;;;;;;;14.33;99.03;100149.94;5044262;28;20077;-72
2021/05/26 09:33:39;;;;;;;11.77;9.05;;;;;;;14.50;97.98;100142.91;5045192;28;20037;-73
2021/05/26 09:36:08;;;;;;;17.67;8.43;;;;;;;14.67;95.90;100134.72;5044047;28;20512;-72
2021/05/26 09:41:09;;;;;;;12.48;7.47;;;;;;;14.85;95.30;100145.44;5038482;28;20049;-73
2021/05/26 09:43:42;;;;;;;13.68;7.82;;;;;;;14.97;92.98;100140.34;5044917;28;20097;-73
2021/05/26 09:46:17;;;;;;;16.48;7.30;;;;;;;14.92;92.78;100143.47;5035201;28;20040;-71
2021/05/26 09:48:43;;;;;;;14.95;6.80;;;;;;;14.75;90.83;100140.88;5038971;28;20041;-73
2021/05/26 09:51:08;;;;;;;10.93;6.22;;;;;;;14.51;93.73;100139.81;5041861;28;20476;-73
2021/05/26 09:53:34;;;;;;;10.77;6.50;;;;;;;14.52;93.94;100151.44;5041045;28;20123;-71
2021/05/26 09:55:59;;;;;;;13.23;6.55;;;;;;;14.44;93.61;100156.06;5048136;28;20092;-72
2021/05/26 09:58:25;;;;;;;10.43;6.32;;;;;;;13.98;95.36;100167.00;5048906;28;20041;-72
2021/05/26 10:00:51;;;;;;;9.07;5.32;;;;;;;13.29;99.12;100158.53;5046923;28;20443;-71
2021/05/26 10:03:16;;;;;;;12.52;6.00;;;;;;;13.32;100.00;100163.16;5042002;28;20045;-72
2021/05/26 10:05:42;;;;;;;12.52;6.45;;;;;;;13.42;100.00;100162.38;5045814;28;20041;-72
2021/05/26 10:08:27;;;;;;;13.32;6.70;;;;;;;13.53;100.00;100152.34;5045999;28;20048;-72
2021/05/26 10:11:11;;;;;;;13.63;6.82;;;;;;;13.64;100.00;100152.34;5046812;28;20424;-73
2021/05/26 10:13:45;;;;;;;15.07;8.07;;;;;;;13.83;100.00;100148.47;5026861;28;20036;-73
2021/05/26 10:16:18;;;;;;;15.07;7.47;;;;;;;14.04;100.00;100149.19;5049965;28;20044;-72
2021/05/26 10:18:45;;;;;;;11.70;8.18;;;;;;;14.36;100.00;100139.06;5039194;28;20469;-73
2021/05/26 10:21:14;;;;;;;10.90;7.95;;;;;;;14.48;100.00;100153.38;5048359;28;20047;-71
2021/05/26 10:23:40;;;;;;;16.02;7.78;;;;;;;14.47;100.00;100144.47;5046397;28;20079;-73
2021/05/26 10:26:05;;;;;;;14.25;7.85;;;;;;;14.32;100.00;100143.72;5048830;28;20032;-72
2021/05/26 10:28:33;;;;;;;10.75;7.43;;;;;;;14.32;100.00;100138.31;5050594;28;20368;-72
2021/05/26 10:31:01;;;;;;;11.13;7.03;;;;;;;14.11;100.00;100134.88;5046665;28;20489;-72
2021/05/26 10:33:42;;;;;;;15.63;7.00;;;;;;;14.10;100.00;100136.03;5041972;28;20060;-72
2021/05/26 10:36:10;;;;;;;12.25;6.88;;;;;;;14.19;100.00;100134.47;5061141;28;20032;-71
2021/05/26 10:38:59;;;;;;;11.23;6.10;;;;;;;14.54;100.00;100139.00;5049454;28;20025;-75
2021/05/26 10:41:45;;;;;;;10.07;6.22;;;;;;;14.58;99.64;100138.97;5044583;28;20033;-72
2021/05/26 10:44:11;;;;;;;6.63;5.75;;;;;;;14.72;98.85;100138.94;5043032;28;20685;-72
2021/05/26 10:46:37;;;;;;;12.85;5.78;;;;;;;14.71;98.07;100129.25;5046204;28;20041;-74
2021/05/26 10:49:05;;;;;;;7.05;4.20;;;;;;;14.14;95.58;100132.16;5039508;28;20427;-72
2021/05/26 10:52:06;;;;;;;5.22;3.70;;;;;;;14.34;96.75;100121.69;5041770;28;20049;-72
2021/05/26 10:54:43;;;;;;;5.07;2.90;;;;;;;14.53;93.82;100115.78;5037648;28;20037;-72
2021/05/26 10:57:09;;;;;;;7.97;4.57;;;;;;;14.88;99.65;100118.31;5043322;28;20438;-74
2021/05/26 10:59:36;;;;;;;5.53;4.18;;;;;;;15.54;98.30;100104.69;5045700;28;20045;-72
2021/05/26 11:02:02;;;;;;;8.57;3.83;;;;;;;15.85;93.62;100107.09;5049413;28;20037;-71
2021/05/26 11:04:27;;;;;;;7.38;3.97;;;;;;;16.16;93.27;100105.22;5044545;28;20056;-72
2021/05/26 11:07:20;;;;;;;5.07;3.55;;;;;;;16.57;92.69;100097.75;5047308;28;20025;-73
2021/05/26 11:10:06;;;;;;;5.95;3.40;;;;;;;17.08;91.69;100102.06;5034140;28;20029;-76
2021/05/26 11:13:08;;;;;;;6.60;3.53;;;;;;;17.15;87.18;100104.69;5041748;28;20037;-73
2021/05/26 11:15:39;;;;;;;4.22;3.20;;;;;;;17.55;86.22;100092.78;5010017;28;20029;-73
2021/05/26 11:18:14;;;;;;;3.83;2.58;;;;;;;17.76;84.79;100094.34;5039345;28;20033;-73
2021/05/26 11:20:40;;;;;;;5.63;2.78;;;;;;;17.74;83.40;100097.50;5040727;28;20083;-73
2021/05/26 11:23:13;;;;;;;4.10;2.47;;;;;;;18.02;82.29;100096.97;5041977;28;20033;-74